Time;durP1;ratioP1;P1;durP2;ratioP2;P2;SDS_P1;SDS_P2;PMS_P1;PMS_P2;Temp;Humidity;BMP_temperature;BMP_pressure;BME280_temperature;BME280_humidity;BME280_pressure;Samples;Min_cycle;Max_cycle;Signal;HPM_P1;HPM_P2
2021/10/20 00:00:39;;;;;;;16.05;11.88;;;18.70;99.90;;;;;;5074114;28;20388;-75
2021/10/20 00:03:05;;;;;;;16.77;11.77;;;18.70;99.90;;;;;;5087788;28;20980;-75
2021/10/20 00:05:30;;;;;;;14.47;11.37;;;18.70;99.90;;;;;;5070513;28;20417;-75
2021/10/20 00:07:57;;;;;;;14.43;10.90;;;18.70;99.90;;;;;;5090865;28;20406;-74
2021/10/20 00:10:23;;;;;;;14.10;11.00;;;18.70;99.90;;;;;;5094096;28;20402;-74
2021/10/20 00:12:52;;;;;;;14.17;10.93;;;18.70;99.90;;;;;;5088221;28;20475;-75
2021/10/20 00:15:20;;;;;;;15.38;11.10;;;18.70;99.90;;;;;;5092138;28;20405;-75
2021/10/20 00:17:47;;;;;;;17.13;11.27;;;18.70;99.90;;;;;;5087151;28;20450;-74
2021/10/20 00:20:18;;;;;;;15.77;11.80;;;18.60;99.90;;;;;;5069352;28;20390;-75
2021/10/20 00:22:45;;;;;;;14.55;11.10;;;18.60;99.90;;;;;;5062200;28;20493;-74
2021/10/20 00:25:12;;;;;;;15.82;11.18;;;18.60;99.90;;;;;;5098000;28;20446;-74
2021/10/20 00:27:38;;;;;;;14.65;11.30;;;18.60;99.90;;;;;;5094935;28;20430;-73
2021/10/20 00:30:04;;;;;;;17.63;11.47;;;18.60;99.90;;;;;;5093840;28;20400;-75
2021/10/20 00:32:30;;;;;;;18.92;11.45;;;18.60;99.90;;;;;;5096171;28;20419;-74
2021/10/20 00:34:56;;;;;;;18.13;11.43;;;18.60;99.90;;;;;;5087128;28;20405;-74
2021/10/20 00:37:22;;;;;;;15.20;11.73;;;18.60;99.90;;;;;;5087553;28;20433;-74
2021/10/20 00:39:48;;;;;;;18.00;11.40;;;18.60;99.90;;;;;;5069057;28;20409;-74
2021/10/20 00:42:16;;;;;;;17.77;11.75;;;18.60;99.90;;;;;;5067585;28;20798;-74
2021/10/20 00:44:50;;;;;;;18.88;12.45;;;18.60;99.90;;;;;;5087943;28;20417;-75
2021/10/20 00:47:17;;;;;;;18.38;12.35;;;18.60;99.90;;;;;;5079586;28;20415;-75
2021/10/20 00:49:43;;;;;;;18.58;11.90;;;18.60;99.90;;;;;;5087025;28;20413;-74
2021/10/20 00:52:10;;;;;;;16.17;11.65;;;18.50;99.90;;;;;;5067348;28;20410;-74
2021/10/20 00:54:37;;;;;;;16.73;12.07;;;18.50;99.90;;;;;;5087374;28;20494;-74
2021/10/20 00:57:04;;;;;;;18.38;12.50;;;18.50;99.90;;;;;;5100114;28;20399;-74
2021/10/20 00:59:31;;;;;;;14.80;11.63;;;18.50;99.90;;;;;;5088760;28;20541;-74
2021/10/20 01:01:57;;;;;;;17.88;12.00;;;18.50;99.90;;;;;;5085561;28;20389;-75
2021/10/20 01:04:22;;;;;;;18.50;12.00;;;18.50;99.90;;;;;;5090200;28;20401;-76
2021/10/20 01:06:48;;;;;;;18.02;12.27;;;18.50;99.90;;;;;;5090586;28;20881;-75
2021/10/20 01:09:14;;;;;;;18.20;12.52;;;18.50;99.90;;;;;;5089911;28;20409;-74
2021/10/20 01:11:39;;;;;;;19.43;12.00;;;18.50;99.90;;;;;;5095405;28;20461;-73
2021/10/20 01:14:05;;;;;;;16.53;11.80;;;18.50;99.90;;;;;;5087621;28;20788;-74
2021/10/20 01:16:31;;;;;;;19.10;12.52;;;18.50;99.90;;;;;;5100231;28;20396;-75
2021/10/20 01:18:57;;;;;;;18.58;12.90;;;18.50;99.90;;;;;;5094410;28;20405;-74
2021/10/20 01:21:22;;;;;;;17.00;12.10;;;18.50;99.90;;;;;;5095055;28;20416;-74
2021/10/20 01:23:49;;;;;;;18.85;12.45;;;18.50;99.90;;;;;;5088181;28;20413;-75
2021/10/20 01:26:15;;;;;;;17.90;12.52;;;18.50;99.90;;;;;;5089777;28;20492;-74
2021/10/20 01:28:42;;;;;;;20.10;12.53;;;18.50;99.90;;;;;;5095755;28;20411;-75
2021/10/20 01:31:09;;;;;;;19.13;13.05;;;18.50;99.90;;;;;;5092694;28;20444;-75
2021/10/20 01:33:34;;;;;;;21.75;13.15;;;18.50;99.90;;;;;;5093477;28;20924;-76
2021/10/20 01:36:00;;;;;;;19.33;12.73;;;18.50;99.90;;;;;;5100108;28;20402;-75
2021/10/20 01:38:26;;;;;;;19.77;12.75;;;18.50;99.90;;;;;;5091463;28;20437;-74
2021/10/20 01:40:51;;;;;;;23.80;13.23;;;18.40;99.90;;;;;;5089756;28;20405;-75
2021/10/20 01:43:17;;;;;;;20.23;13.00;;;18.50;99.80;;;;;;5088272;28;20491;-74
2021/10/20 01:45:43;;;;;;;21.27;13.23;;;18.40;99.70;;;;;;5089602;28;20460;-74
2021/10/20 01:48:08;;;;;;;21.13;13.27;;;18.50;99.70;;;;;;5069698;28;20409;-74
2021/10/20 01:50:34;;;;;;;22.33;13.77;;;18.50;99.60;;;;;;5105023;28;20413;-74
2021/10/20 01:53:00;;;;;;;19.13;13.37;;;18.50;99.40;;;;;;5086890;28;21150;-74
2021/10/20 01:55:25;;;;;;;21.40;13.88;;;18.50;99.40;;;;;;5071566;28;20999;-73
2021/10/20 01:57:51;;;;;;;20.63;14.03;;;18.50;99.30;;;;;;5088332;28;20488;-74
2021/10/20 02:00:17;;;;;;;20.23;13.73;;;18.50;99.10;;;;;;5071221;28;20493;-74
2021/10/20 02:02:43;;;;;;;19.52;13.57;;;18.50;99.00;;;;;;5088672;28;20947;-74
2021/10/20 02:05:11;;;;;;;21.30;14.15;;;18.50;98.90;;;;;;5089234;28;20467;-75
2021/10/20 02:07:38;;;;;;;23.15;13.90;;;18.60;98.80;;;;;;5090139;28;20985;-74
2021/10/20 02:10:11;;;;;;;23.10;14.30;;;18.60;98.60;;;;;;5089875;28;20401;-74
2021/10/20 02:12:37;;;;;;;22.98;14.45;;;18.60;98.50;;;;;;5070103;28;20940;-75
2021/10/20 02:15:04;;;;;;;22.05;14.20;;;18.60;98.30;;;;;;5090631;28;20396;-74
2021/10/20 02:17:30;;;;;;;24.00;14.30;;;18.60;98.30;;;;;;5101276;28;20416;-74
2021/10/20 02:19:55;;;;;;;23.00;14.30;;;18.70;98.20;;;;;;5079873;28;20407;-73
2021/10/20 02:22:21;;;;;;;21.37;14.20;;;18.70;98.20;;;;;;5099255;28;20412;-74
2021/10/20 02:24:47;;;;;;;20.27;14.50;;;18.60;98.10;;;;;;5091530;28;20418;-73
2021/10/20 02:27:12;;;;;;;22.60;14.50;;;18.60;98.00;;;;;;5097643;28;20458;-75
2021/10/20 02:29:38;;;;;;;23.67;14.35;;;18.70;98.00;;;;;;5102856;28;20457;-74
2021/10/20 02:32:04;;;;;;;24.23;14.63;;;18.70;97.90;;;;;;5094311;28;20421;-74
2021/10/20 02:34:30;;;;;;;24.80;15.05;;;18.70;97.90;;;;;;5092110;28;20886;-74
2021/10/20 02:36:55;;;;;;;24.10;14.23;;;18.70;98.10;;;;;;5078090;28;20752;-74
2021/10/20 02:39:21;;;;;;;22.27;14.48;;;18.70;97.70;;;;;;5114408;27;20436;-74
2021/10/20 02:41:47;;;;;;;25.40;14.60;;;18.70;97.60;;;;;;5074246;28;20412;-76
2021/10/20 02:44:12;;;;;;;24.67;14.73;;;18.60;97.60;;;;;;5110535;27;20406;-75
2021/10/20 02:46:38;;;;;;;27.25;14.82;;;18.60;97.60;;;;;;5102488;28;20206;-77
2021/10/20 02:49:04;;;;;;;28.10;14.30;;;18.30;98.20;;;;;;5087531;28;20178;-76
2021/10/20 02:51:30;;;;;;;20.92;14.23;;;18.00;98.60;;;;;;5090782;28;20942;-76
2021/10/20 02:53:57;;;;;;;23.88;13.45;;;18.30;98.40;;;;;;5097611;28;20193;-75
2021/10/20 02:56:23;;;;;;;27.17;14.68;;;18.00;98.70;;;;;;5098457;28;20182;-76
2021/10/20 02:58:49;;;;;;;28.75;13.88;;;17.80;99.00;;;;;;5074098;28;20194;-76
2021/10/20 03:01:15;;;;;;;20.67;13.35;;;17.60;99.30;;;;;;5093682;28;20188;-75
2021/10/20 03:03:40;;;;;;;19.27;13.15;;;17.50;99.50;;;;;;5096512;28;20638;-72
2021/10/20 03:06:06;;;;;;;21.98;13.65;;;17.40;99.60;;;;;;5068505;28;20182;-75
2021/10/20 03:08:32;;;;;;;22.60;13.90;;;17.40;99.70;;;;;;5085401;28;20405;-75
2021/10/20 03:10:58;;;;;;;23.40;14.23;;;17.80;99.30;;;;;;5087938;28;20408;-75
2021/10/20 03:13:23;;;;;;;21.33;14.50;;;18.00;98.60;;;;;;5088715;28;20416;-75
2021/10/20 03:15:49;;;;;;;21.55;14.48;;;18.10;98.20;;;;;;5087442;28;20422;-76
2021/10/20 03:18:15;;;;;;;20.42;14.10;;;18.20;97.90;;;;;;5087212;28;20416;-75
2021/10/20 03:20:40;;;;;;;22.03;13.77;;;18.20;97.60;;;;;;5070234;28;20409;-74
2021/10/20 03:23:06;;;;;;;18.77;14.00;;;18.30;97.60;;;;;;5085838;28;20421;-73
2021/10/20 03:25:32;;;;;;;22.98;14.07;;;18.30;97.30;;;;;;5088963;28;20443;-75
2021/10/20 03:27:57;;;;;;;21.27;13.95;;;18.30;97.10;;;;;;5086843;28;20440;-74
2021/10/20 03:30:23;;;;;;;21.67;14.37;;;18.30;96.90;;;;;;5090909;28;20423;-72
2021/10/20 03:32:49;;;;;;;20.23;14.82;;;18.30;96.70;;;;;;5084954;28;20413;-73
2021/10/20 03:35:16;;;;;;;20.88;14.50;;;18.40;96.60;;;;;;5088366;28;20427;-73
2021/10/20 03:37:42;;;;;;;21.80;14.40;;;18.40;96.50;;;;;;5069729;28;20489;-72
2021/10/20 03:40:09;;;;;;;23.97;14.53;;;18.40;96.50;;;;;;5087004;28;20422;-74
2021/10/20 03:42:35;;;;;;;22.65;14.60;;;18.50;96.30;;;;;;5065331;28;20466;-74
2021/10/20 03:45:02;;;;;;;26.13;15.13;;;18.50;96.20;;;;;;5102944;28;20420;-74
2021/10/20 03:47:28;;;;;;;23.00;15.57;;;18.40;96.00;;;;;;5083948;28;20463;-74
2021/10/20 03:49:54;;;;;;;24.90;15.33;;;18.40;95.90;;;;;;5092139;28;20416;-75
2021/10/20 03:52:19;;;;;;;26.25;15.00;;;18.50;95.80;;;;;;5068253;28;20420;-75
2021/10/20 03:54:45;;;;;;;23.98;15.65;;;18.50;95.60;;;;;;5073520;28;20397;-74
2021/10/20 03:57:11;;;;;;;23.63;15.77;;;18.50;95.40;;;;;;5075999;28;20769;-73
2021/10/20 03:59:37;;;;;;;24.77;15.90;;;18.50;95.20;;;;;;5086873;28;20398;-74
2021/10/20 04:02:03;;;;;;;27.00;16.70;;;18.50;95.10;;;;;;5086104;28;20441;-73
2021/10/20 04:04:29;;;;;;;23.92;16.67;;;18.40;94.90;;;;;;5092131;28;20438;-73
2021/10/20 04:06:54;;;;;;;26.73;16.67;;;18.50;94.70;;;;;;5097881;28;20432;-73
2021/10/20 04:09:20;;;;;;;26.80;16.67;;;18.50;94.60;;;;;;5102987;28;20396;-73
2021/10/20 04:11:46;;;;;;;24.02;16.20;;;18.50;94.60;;;;;;5093223;28;20519;-73
2021/10/20 04:14:12;;;;;;;28.90;16.85;;;18.50;94.80;;;;;;5093629;28;20495;-72
2021/10/20 04:16:38;;;;;;;25.17;17.20;;;18.60;94.40;;;;;;5079041;28;20502;-73
2021/10/20 04:19:03;;;;;;;26.20;16.90;;;18.50;94.60;;;;;;5069378;28;20426;-73
2021/10/20 04:21:29;;;;;;;26.93;16.53;;;18.60;95.00;;;;;;5091295;28;20782;-73
2021/10/20 04:23:55;;;;;;;24.65;16.40;;;18.50;94.60;;;;;;5072942;28;20898;-73
2021/10/20 04:26:21;;;;;;;25.53;16.10;;;18.50;94.50;;;;;;5089467;28;20420;-72
2021/10/20 04:28:46;;;;;;;23.40;16.53;;;18.50;94.40;;;;;;5086157;28;20424;-72
2021/10/20 04:31:12;;;;;;;24.40;15.80;;;18.50;94.20;;;;;;5074417;28;20465;-72
2021/10/20 04:33:38;;;;;;;24.33;16.10;;;18.60;94.30;;;;;;5088664;28;20465;-72
2021/10/20 04:36:04;;;;;;;22.93;15.67;;;18.50;94.60;;;;;;5088887;28;20402;-72
2021/10/20 04:38:32;;;;;;;23.33;16.50;;;18.60;94.80;;;;;;5084823;28;20497;-72
2021/10/20 04:40:58;;;;;;;29.20;16.73;;;18.60;95.20;;;;;;5089015;28;20791;-73
2021/10/20 04:43:23;;;;;;;27.77;17.60;;;18.60;95.70;;;;;;5087371;28;20479;-74
2021/10/20 04:45:51;;;;;;;30.10;17.27;;;18.60;96.20;;;;;;5091238;28;20394;-73
2021/10/20 04:48:17;;;;;;;28.63;17.02;;;18.70;96.40;;;;;;5091309;28;20493;-75
2021/10/20 04:50:42;;;;;;;28.02;16.92;;;18.70;96.60;;;;;;5104353;28;20405;-74
2021/10/20 04:53:08;;;;;;;29.77;17.10;;;18.80;96.80;;;;;;5071306;28;20496;-76
2021/10/20 04:55:34;;;;;;;31.37;17.60;;;18.80;96.90;;;;;;5093804;28;20400;-74
2021/10/20 04:58:03;;;;;;;32.35;17.35;;;18.80;97.00;;;;;;5096414;28;20500;-73
2021/10/20 05:00:29;;;;;;;31.83;17.37;;;18.80;97.10;;;;;;5105382;28;20396;-73
2021/10/20 05:02:54;;;;;;;30.88;17.15;;;18.80;97.30;;;;;;5094365;28;20410;-73
2021/10/20 05:05:20;;;;;;;32.40;18.35;;;18.80;97.50;;;;;;5076888;28;20407;-73
2021/10/20 05:07:51;;;;;;;36.13;20.23;;;18.80;97.90;;;;;;5098497;28;20409;-73
2021/10/20 05:10:18;;;;;;;37.50;20.88;;;18.80;98.80;;;;;;5085754;28;20404;-73
2021/10/20 05:12:43;;;;;;;37.88;21.83;;;18.70;99.90;;;;;;5092147;28;20433;-73
2021/10/20 05:15:11;;;;;;;41.97;24.20;;;18.50;99.90;;;;;;5099196;28;20450;-72
2021/10/20 05:17:41;;;;;;;43.00;24.25;;;18.30;99.90;;;;;;5089229;28;20429;-73
2021/10/20 05:20:08;;;;;;;49.15;25.77;;;18.00;99.90;;;;;;5096789;28;20401;-73
2021/10/20 05:22:38;;;;;;;49.15;26.63;;;17.80;99.90;;;;;;5075457;28;20409;-72
2021/10/20 05:25:05;;;;;;;47.53;25.83;;;17.60;99.90;;;;;;5085745;28;20417;-71
2021/10/20 05:27:32;;;;;;;54.85;28.15;;;17.40;99.90;;;;;;5092735;28;20581;-70
2021/10/20 05:29:58;;;;;;;50.00;28.27;;;17.20;99.90;;;;;;5091344;28;20459;-70
2021/10/20 05:32:28;;;;;;;56.08;28.75;;;17.10;99.90;;;;;;5094488;28;20422;-70
2021/10/20 05:34:54;;;;;;;50.03;26.33;;;17.00;99.90;;;;;;5073912;28;20416;-73
2021/10/20 05:37:21;;;;;;;56.73;28.80;;;17.00;99.90;;;;;;5086395;28;20406;-70
2021/10/20 05:39:48;;;;;;;53.47;26.85;;;16.90;99.90;;;;;;5091804;28;20762;-72
2021/10/20 05:42:18;;;;;;;54.75;28.23;;;16.90;99.90;;;;;;5105316;27;20743;-71
2021/10/20 05:44:43;;;;;;;53.15;27.25;;;16.80;99.90;;;;;;5078571;28;20416;-71
2021/10/20 05:47:10;;;;;;;58.43;29.17;;;16.80;99.90;;;;;;5076623;28;20425;-71
2021/10/20 05:49:36;;;;;;;55.53;28.43;;;16.80;99.90;;;;;;5081250;28;20935;-71
2021/10/20 05:52:03;;;;;;;59.85;29.48;;;16.80;99.90;;;;;;5088802;28;20449;-71
2021/10/20 05:54:28;;;;;;;61.80;28.60;;;16.80;99.90;;;;;;5089154;28;20440;-72
2021/10/20 05:56:54;;;;;;;54.38;28.27;;;16.80;99.90;;;;;;5088706;28;20823;-71
2021/10/20 05:59:23;;;;;;;56.50;28.77;;;16.80;99.90;;;;;;5087129;28;20406;-71
2021/10/20 06:01:52;;;;;;;55.63;27.73;;;16.80;99.90;;;;;;5088899;28;20496;-72
2021/10/20 06:04:19;;;;;;;54.50;27.47;;;16.80;99.90;;;;;;5085657;28;20494;-71
2021/10/20 06:06:45;;;;;;;54.38;26.23;;;16.70;99.90;;;;;;5092922;28;20451;-72
2021/10/20 06:09:11;;;;;;;57.17;25.92;;;16.70;99.90;;;;;;5105674;28;20411;-71
2021/10/20 06:11:37;;;;;;;53.35;25.33;;;16.70;99.90;;;;;;5093463;28;20474;-71
2021/10/20 06:14:03;;;;;;;49.97;24.67;;;16.80;99.90;;;;;;5075378;28;20471;-70
2021/10/20 06:16:31;;;;;;;45.97;23.70;;;16.80;99.90;;;;;;5096345;28;20906;-70
2021/10/20 06:18:57;;;;;;;45.33;23.13;;;16.80;99.90;;;;;;5066716;28;20416;-70
2021/10/20 06:21:23;;;;;;;45.08;22.55;;;16.80;99.90;;;;;;5087991;28;20406;-71
2021/10/20 06:23:48;;;;;;;48.40;21.60;;;16.90;99.90;;;;;;5071768;28;20408;-70
2021/10/20 06:26:14;;;;;;;42.20;20.80;;;16.90;99.90;;;;;;5088217;28;20759;-71
2021/10/20 06:28:39;;;;;;;38.10;20.17;;;16.90;99.90;;;;;;5088155;28;20497;-70
2021/10/20 06:31:05;;;;;;;35.40;19.33;;;17.00;99.90;;;;;;5089754;28;20769;-70
2021/10/20 06:33:31;;;;;;;36.00;19.17;;;17.00;99.90;;;;;;5062799;28;20417;-72
2021/10/20 06:35:56;;;;;;;33.57;17.90;;;17.10;99.90;;;;;;5093518;28;20400;-70
2021/10/20 06:38:22;;;;;;;34.53;18.30;;;17.10;99.90;;;;;;5092494;28;20447;-72
2021/10/20 06:40:48;;;;;;;33.85;18.25;;;17.20;99.90;;;;;;5124037;27;20437;-72
2021/10/20 06:43:15;;;;;;;32.33;16.90;;;17.20;99.90;;;;;;5096269;28;20425;-71
2021/10/20 06:45:40;;;;;;;32.95;17.98;;;17.20;99.90;;;;;;5072288;28;20558;-75
2021/10/20 06:48:07;;;;;;;31.00;16.93;;;17.30;99.90;;;;;;5068577;28;20531;-73
2021/10/20 06:50:33;;;;;;;26.08;16.13;;;17.30;99.90;;;;;;5094397;28;20406;-72
2021/10/20 06:52:59;;;;;;;25.67;16.33;;;17.30;99.90;;;;;;5089404;28;20410;-72
2021/10/20 06:55:25;;;;;;;24.45;16.00;;;17.30;99.90;;;;;;5069742;28;20520;-71
2021/10/20 06:57:51;;;;;;;26.15;16.35;;;17.30;99.90;;;;;;5073451;28;20477;-72
2021/10/20 07:00:17;;;;;;;24.03;16.00;;;17.40;99.90;;;;;;5088836;28;20517;-71
2021/10/20 07:02:42;;;;;;;23.90;15.53;;;17.30;99.90;;;;;;5085942;28;20947;-71
2021/10/20 07:05:09;;;;;;;24.13;15.68;;;17.30;99.90;;;;;;5097144;28;21239;-72
2021/10/20 07:07:35;;;;;;;23.40;15.20;;;17.30;99.90;;;;;;5072016;28;20425;-72
2021/10/20 07:10:01;;;;;;;25.98;15.27;;;17.30;99.90;;;;;;5069853;28;20461;-72
2021/10/20 07:12:30;;;;;;;25.05;15.57;;;17.30;99.90;;;;;;5068893;28;21295;-72
2021/10/20 07:14:57;;;;;;;21.65;15.00;;;17.30;99.90;;;;;;5088795;28;20450;-71
2021/10/20 07:17:22;;;;;;;22.38;15.25;;;17.30;99.90;;;;;;5086023;28;20502;-71
2021/10/20 07:19:48;;;;;;;24.57;15.50;;;17.30;99.90;;;;;;5088554;28;21296;-71
2021/10/20 07:22:13;;;;;;;23.08;15.20;;;17.30;99.90;;;;;;5090642;28;20444;-71
2021/10/20 07:24:40;;;;;;;21.83;14.60;;;17.30;99.90;;;;;;5084485;28;20404;-71
2021/10/20 07:27:06;;;;;;;23.02;14.35;;;17.30;99.90;;;;;;5087419;28;20454;-72
2021/10/20 07:29:32;;;;;;;21.47;14.60;;;17.30;99.90;;;;;;5091775;28;22410;-72
2021/10/20 07:31:58;;;;;;;21.63;14.00;;;17.30;99.90;;;;;;5099158;28;20442;-72
2021/10/20 07:34:23;;;;;;;24.33;13.73;;;17.20;99.90;;;;;;5070486;28;20416;-71
2021/10/20 07:36:50;;;;;;;18.63;13.98;;;17.20;99.90;;;;;;5090216;28;20409;-72
2021/10/20 07:39:16;;;;;;;21.48;14.35;;;17.20;99.90;;;;;;5068612;28;20401;-71
2021/10/20 07:41:42;;;;;;;20.52;13.43;;;17.20;99.90;;;;;;5087826;28;20429;-72
2021/10/20 07:44:07;;;;;;;20.17;14.25;;;17.20;99.90;;;;;;5069829;28;20878;-69
2021/10/20 07:46:33;;;;;;;22.23;14.57;;;17.20;99.90;;;;;;5088446;28;20417;-71
2021/10/20 07:48:59;;;;;;;22.08;14.48;;;17.20;99.90;;;;;;5085451;28;20413;-71
2021/10/20 07:51:25;;;;;;;20.73;14.83;;;17.20;99.90;;;;;;5087555;28;20397;-71
2021/10/20 07:53:51;;;;;;;21.67;14.52;;;17.20;99.90;;;;;;5085553;28;20426;-70
2021/10/20 07:56:16;;;;;;;19.47;14.00;;;17.20;99.90;;;;;;5088986;28;20932;-70
2021/10/20 07:58:42;;;;;;;21.67;13.83;;;17.20;99.90;;;;;;5089678;28;20462;-70
2021/10/20 08:01:08;;;;;;;21.60;14.13;;;17.20;99.90;;;;;;5085628;28;20442;-70
2021/10/20 08:03:34;;;;;;;19.83;14.13;;;17.20;99.90;;;;;;5085668;28;20467;-70
2021/10/20 08:05:59;;;;;;;21.02;14.13;;;17.20;99.90;;;;;;5114690;27;20410;-71
2021/10/20 08:08:25;;;;;;;21.42;14.35;;;17.20;99.90;;;;;;5086360;28;20418;-71
2021/10/20 08:10:51;;;;;;;23.53;14.80;;;17.20;99.90;;;;;;5083916;28;20909;-71
2021/10/20 08:13:16;;;;;;;19.30;14.50;;;17.20;99.90;;;;;;5079042;28;20511;-69
2021/10/20 08:15:42;;;;;;;20.73;15.38;;;17.20;99.90;;;;;;5095623;28;20403;-71
2021/10/20 08:18:09;;;;;;;20.33;15.63;;;17.20;99.90;;;;;;5044467;28;20474;-70
2021/10/20 08:20:35;;;;;;;20.88;15.60;;;17.30;99.90;;;;;;5080394;28;20401;-70
2021/10/20 08:23:05;;;;;;;18.77;14.85;;;17.30;99.90;;;;;;5078014;28;20446;-70
2021/10/20 08:25:34;;;;;;;19.27;14.93;;;17.30;99.90;;;;;;5076743;28;20410;-70
2021/10/20 08:28:00;;;;;;;20.45;15.60;;;17.30;99.90;;;;;;5073991;28;20465;-70
2021/10/20 08:30:34;;;;;;;17.52;13.60;;;17.30;99.90;;;;;;5070833;28;20449;-69
2021/10/20 08:33:00;;;;;;;16.97;13.07;;;17.30;99.90;;;;;;5075978;28;20421;-70
2021/10/20 08:35:25;;;;;;;18.17;13.25;;;17.40;99.90;;;;;;5085096;28;20405;-69
2021/10/20 08:38:00;;;;;;;18.90;13.17;;;17.40;99.90;;;;;;5086098;28;20425;-69
2021/10/20 08:40:33;;;;;;;18.13;12.27;;;17.40;99.90;;;;;;5070212;28;20401;-69
2021/10/20 08:43:00;;;;;;;19.80;11.67;;;17.50;99.90;;;;;;5080540;28;20476;-69
2021/10/20 08:45:27;;;;;;;17.92;12.10;;;17.60;99.90;;;;;;5085190;28;20417;-69
2021/10/20 08:47:54;;;;;;;15.02;11.13;;;17.70;99.90;;;;;;5078830;28;20519;-70
2021/10/20 08:50:22;;;;;;;15.82;11.15;;;17.70;99.90;;;;;;5066713;28;20434;-70
2021/10/20 08:52:49;;;;;;;18.02;11.80;;;17.80;99.90;;;;;;5059235;28;20413;-70
2021/10/20 08:55:16;;;;;;;15.02;11.02;;;17.90;99.90;;;;;;5050106;28;20932;-70
2021/10/20 08:57:44;;;;;;;16.95;10.73;;;17.90;99.90;;;;;;5050335;28;20433;-70
2021/10/20 09:00:11;;;;;;;14.10;10.63;;;18.00;99.90;;;;;;5079784;28;20472;-70
2021/10/20 09:02:41;;;;;;;14.50;10.40;;;18.10;99.90;;;;;;5057204;28;20415;-70
2021/10/20 09:05:13;;;;;;;16.40;10.05;;;18.20;99.90;;;;;;5075206;28;20415;-72
2021/10/20 09:07:44;;;;;;;15.93;9.90;;;18.30;99.90;;;;;;5074783;28;20418;-71
2021/10/20 09:10:10;;;;;;;13.52;10.30;;;18.40;99.90;;;;;;5072276;28;20482;-70
2021/10/20 09:12:42;;;;;;;13.52;10.02;;;18.40;99.90;;;;;;5056599;28;20425;-69
2021/10/20 09:15:11;;;;;;;15.35;10.10;;;18.40;99.90;;;;;;5063013;28;20403;-71
2021/10/20 09:17:53;;;;;;;13.50;9.38;;;18.50;99.90;;;;;;5070389;28;20439;-70
2021/10/20 09:20:26;;;;;;;12.38;9.57;;;18.50;99.90;;;;;;5085724;28;20422;-72
2021/10/20 09:22:54;;;;;;;15.32;9.38;;;18.40;99.90;;;;;;5082723;28;20424;-70
2021/10/20 09:25:19;;;;;;;12.93;9.07;;;18.50;99.90;;;;;;5080535;28;20423;-70
2021/10/20 09:27:45;;;;;;;12.45;9.07;;;18.50;99.90;;;;;;5080274;28;20417;-70
2021/10/20 09:30:13;;;;;;;12.13;8.97;;;18.50;99.90;;;;;;5078915;28;20409;-70
2021/10/20 09:32:39;;;;;;;12.18;8.25;;;18.50;99.90;;;;;;5068544;28;20946;-72
2021/10/20 09:35:06;;;;;;;12.70;8.50;;;18.50;99.90;;;;;;5071366;28;20400;-70
2021/10/20 09:37:33;;;;;;;12.25;8.38;;;18.50;99.90;;;;;;5088385;28;20418;-72
2021/10/20 09:40:06;;;;;;;10.75;7.45;;;18.50;99.90;;;;;;5070877;28;20416;-72
2021/10/20 09:42:46;;;;;;;10.90;7.95;;;18.50;99.90;;;;;;5093257;28;20417;-70
2021/10/20 09:45:14;;;;;;;13.10;7.97;;;18.50;99.90;;;;;;5070662;28;20628;-71
2021/10/20 09:47:41;;;;;;;13.75;7.82;;;18.50;99.90;;;;;;5088099;28;20431;-71
2021/10/20 09:50:07;;;;;;;11.45;7.97;;;18.50;99.90;;;;;;5088763;28;20897;-70
2021/10/20 09:52:50;;;;;;;12.90;8.00;;;18.50;99.90;;;;;;5088978;28;20421;-71
2021/10/20 09:55:30;;;;;;;11.27;7.57;;;18.50;99.90;;;;;;5089913;28;20482;-72
2021/10/20 09:58:15;;;;;;;12.82;8.15;;;18.60;99.90;;;;;;5088709;28;20436;-71
2021/10/20 10:00:42;;;;;;;15.02;7.80;;;18.60;99.90;;;;;;5075239;28;20497;-70
2021/10/20 10:03:09;;;;;;;14.20;7.73;;;18.70;99.90;;;;;;5087567;28;20436;-71
2021/10/20 10:05:34;;;;;;;16.27;7.18;;;18.80;99.90;;;;;;5089291;28;20406;-70
2021/10/20 10:08:01;;;;;;;14.87;7.53;;;18.80;99.90;;;;;;5088223;28;20931;-72
2021/10/20 10:10:28;;;;;;;16.25;7.43;;;18.90;99.90;;;;;;5089718;28;20390;-71
2021/10/20 10:13:13;;;;;;;15.55;7.13;;;19.00;99.90;;;;;;5071260;28;20995;-71
2021/10/20 10:15:40;;;;;;;16.80;7.30;;;19.10;99.90;;;;;;5071020;28;20428;-73
2021/10/20 10:18:08;;;;;;;19.17;7.25;;;19.20;99.90;;;;;;5087742;28;20757;-71
2021/10/20 10:20:43;;;;;;;17.48;7.05;;;19.20;99.90;;;;;;5091282;28;20405;-71
2021/10/20 10:23:27;;;;;;;17.40;7.37;;;19.30;99.90;;;;;;5096156;28;20410;-71
2021/10/20 10:25:58;;;;;;;21.80;7.70;;;19.40;99.90;;;;;;5092599;28;20537;-72
2021/10/20 10:28:26;;;;;;;23.35;7.43;;;19.40;99.90;;;;;;5096788;28;20409;-72
2021/10/20 10:30:53;;;;;;;18.80;6.93;;;19.50;99.90;;;;;;5092221;28;20788;-73
2021/10/20 10:33:27;;;;;;;19.02;7.03;;;19.50;99.90;;;;;;5085757;28;20422;-72
2021/10/20 10:36:13;;;;;;;18.48;7.18;;;19.40;99.90;;;;;;5086759;28;20443;-72
2021/10/20 10:38:46;;;;;;;18.87;7.23;;;19.40;99.90;;;;;;5069635;28;20410;-73
2021/10/20 10:41:26;;;;;;;18.20;7.70;;;19.30;99.90;;;;;;5088391;28;20406;-72
2021/10/20 10:44:04;;;;;;;18.35;7.50;;;19.30;99.90;;;;;;5086636;28;20466;-72
2021/10/20 10:46:46;;;;;;;22.30;8.13;;;19.30;99.90;;;;;;5069596;28;20580;-72
2021/10/20 10:49:29;;;;;;;23.00;8.05;;;19.20;99.90;;;;;;5086453;28;20501;-72
2021/10/20 10:52:18;;;;;;;21.75;7.93;;;19.20;99.90;;;;;;5087645;28;20898;-71
2021/10/20 10:55:14;;;;;;;24.35;8.48;;;19.30;99.90;;;;;;5087527;28;20405;-70
2021/10/20 10:57:56;;;;;;;21.50;7.90;;;19.20;99.90;;;;;;5068641;28;20414;-71
2021/10/20 11:00:21;;;;;;;20.95;7.20;;;19.20;99.90;;;;;;5089397;28;20261;-72
2021/10/20 11:02:55;;;;;;;21.63;7.18;;;18.80;99.90;;;;;;5069796;28;20284;-71
2021/10/20 11:05:23;;;;;;;21.95;7.68;;;18.50;99.90;;;;;;5070856;28;20186;-71
2021/10/20 11:07:51;;;;;;;30.15;8.15;;;18.30;99.90;;;;;;5085488;28;20190;-72
2021/10/20 11:10:17;;;;;;;25.13;8.00;;;18.20;99.90;;;;;;5093394;28;20185;-71
2021/10/20 11:12:48;;;;;;;26.57;8.83;;;18.10;99.90;;;;;;5096330;28;20430;-71
2021/10/20 11:15:15;;;;;;;23.27;8.57;;;18.60;99.90;;;;;;5090613;28;20882;-71
2021/10/20 11:17:41;;;;;;;29.50;8.73;;;18.80;99.90;;;;;;5095293;28;20451;-71
2021/10/20 11:20:09;;;;;;;25.48;8.73;;;18.90;99.90;;;;;;5089251;28;20456;-71
2021/10/20 11:22:35;;;;;;;28.10;8.88;;;19.00;99.90;;;;;;5085133;28;20452;-71
2021/10/20 11:25:02;;;;;;;27.60;8.85;;;19.10;99.90;;;;;;5069021;28;20531;-71
2021/10/20 11:27:28;;;;;;;19.95;7.90;;;19.10;99.90;;;;;;5086362;28;20487;-71
2021/10/20 11:29:54;;;;;;;23.83;8.43;;;19.10;99.90;;;;;;5089567;28;20414;-68
2021/10/20 11:32:21;;;;;;;22.20;8.05;;;19.10;99.90;;;;;;5087283;28;20878;-71
2021/10/20 11:34:48;;;;;;;23.25;8.02;;;19.20;99.90;;;;;;5069597;28;20413;-70
2021/10/20 11:37:15;;;;;;;24.45;8.20;;;19.20;99.90;;;;;;5068241;28;20406;-72
2021/10/20 11:39:49;;;;;;;23.48;8.05;;;19.20;99.90;;;;;;5075682;28;20406;-71
2021/10/20 11:42:15;;;;;;;29.55;8.48;;;19.20;99.90;;;;;;5083653;28;20488;-70
2021/10/20 11:44:42;;;;;;;27.00;7.88;;;19.20;99.90;;;;;;5086142;28;20413;-72
2021/10/20 11:47:17;;;;;;;24.83;8.43;;;19.20;99.90;;;;;;5084643;28;20424;-71
2021/10/20 11:49:48;;;;;;;24.38;7.45;;;19.20;99.90;;;;;;5058193;28;20414;-72
2021/10/20 11:52:15;;;;;;;23.10;8.05;;;19.20;99.90;;;;;;5085918;28;20431;-72
2021/10/20 11:54:40;;;;;;;20.88;8.30;;;19.20;99.90;;;;;;5086704;28;20402;-72
2021/10/20 11:57:09;;;;;;;27.33;8.27;;;19.30;99.90;;;;;;5066082;28;20442;-72
2021/10/20 11:59:35;;;;;;;30.33;8.50;;;19.30;99.90;;;;;;5068908;28;20417;-73
2021/10/20 12:02:01;;;;;;;27.85;7.90;;;19.30;99.90;;;;;;5071673;28;20467;-72
2021/10/20 12:04:28;;;;;;;24.63;7.47;;;19.40;99.90;;;;;;5086793;28;20414;-72
2021/10/20 12:07:00;;;;;;;25.90;7.53;;;19.40;99.90;;;;;;5086085;28;20497;-72
2021/10/20 12:09:28;;;;;;;28.30;8.15;;;19.40;99.90;;;;;;5087045;28;20482;-72
2021/10/20 12:11:56;;;;;;;28.55;7.50;;;19.40;99.90;;;;;;5085587;28;20480;-71
2021/10/20 12:14:24;;;;;;;26.98;7.30;;;19.40;99.90;;;;;;5086767;28;20969;-73
2021/10/20 12:16:51;;;;;;;28.98;7.05;;;19.40;99.90;;;;;;5088555;28;20502;-73
2021/10/20 12:19:21;;;;;;;23.73;7.10;;;19.40;99.90;;;;;;5085876;28;20761;-70
2021/10/20 12:21:47;;;;;;;29.13;7.43;;;19.30;99.90;;;;;;5086932;28;20482;-71
2021/10/20 12:24:16;;;;;;;38.45;8.18;;;19.40;99.90;;;;;;5092349;28;20404;-72
2021/10/20 12:26:43;;;;;;;30.20;7.53;;;19.30;99.90;;;;;;5111286;27;20412;-71
2021/10/20 12:29:11;;;;;;;29.53;7.03;;;19.30;99.90;;;;;;5072255;28;20428;-71
2021/10/20 12:31:37;;;;;;;33.88;6.70;;;19.40;99.90;;;;;;5089820;28;20449;-71